Espanola, Washington
Current Conditions -  °F | °C
As of 1:58 AM on Wednesday 22 Oct 2014 (Local Time) from KSKA Reporting Station
Clear Clear  
Wind Chill: 37°   Ceiling: Unl
Heat Index: 41°   Visibility: 10mi
Dew Point: 37°   Wind: 7mph
Humidity: 84%   Direction: 150°SSE
Pressure: 29.96"   Gusts: NA
Location:  47.6094°N, 117.705°W
Report Text: KSKA 220858Z AUTO 15006KT 10SM CLR 05/03 A2996 RMK AO2 SLP151 T00510026 56001
Loading
Personal Weather Stations






























Interactive Weather Map New forecast layout! Learn more

10-Day Weather Forecast

Advertisements
Track Severe Weather on mobile